sensor_id;sensor_type;location;lat;lon;timestamp;temperature;humidity
65038;DHT22;51605;47.040;15.294;2022-08-19T00:01:51;24.70;51.30
65038;DHT22;51605;47.040;15.294;2022-08-19T00:04:19;24.70;51.30
65038;DHT22;51605;47.040;15.294;2022-08-19T00:06:46;24.70;51.30
65038;DHT22;51605;47.040;15.294;2022-08-19T00:09:14;24.70;52.30
65038;DHT22;51605;47.040;15.294;2022-08-19T00:11:41;24.70;51.30
65038;DHT22;51605;47.040;15.294;2022-08-19T00:14:08;24.70;51.30
65038;DHT22;51605;47.040;15.294;2022-08-19T00:16:36;24.70;51.40
65038;DHT22;51605;47.040;15.294;2022-08-19T00:19:04;24.70;51.30
65038;DHT22;51605;47.040;15.294;2022-08-19T00:21:30;24.70;51.30
65038;DHT22;51605;47.040;15.294;2022-08-19T00:23:56;24.70;51.30
65038;DHT22;51605;47.040;15.294;2022-08-19T00:26:27;24.70;51.30
65038;DHT22;51605;47.040;15.294;2022-08-19T00:28:53;24.70;51.30
65038;DHT22;51605;47.040;15.294;2022-08-19T00:31:19;24.70;51.30
65038;DHT22;51605;47.040;15.294;2022-08-19T00:33:44;24.70;51.30
65038;DHT22;51605;47.040;15.294;2022-08-19T00:36:10;24.70;51.30
65038;DHT22;51605;47.040;15.294;2022-08-19T00:38:37;24.70;51.40
65038;DHT22;51605;47.040;15.294;2022-08-19T00:41:05;24.70;51.30
65038;DHT22;51605;47.040;15.294;2022-08-19T00:43:31;24.70;51.30
65038;DHT22;51605;47.040;15.294;2022-08-19T00:45:57;24.70;51.30
65038;DHT22;51605;47.040;15.294;2022-08-19T00:48:23;24.70;51.30
65038;DHT22;51605;47.040;15.294;2022-08-19T00:50:50;24.70;51.30
65038;DHT22;51605;47.040;15.294;2022-08-19T00:53:21;24.70;51.30
65038;DHT22;51605;47.040;15.294;2022-08-19T00:55:49;24.70;51.30
65038;DHT22;51605;47.040;15.294;2022-08-19T00:58:19;24.70;51.30
65038;DHT22;51605;47.040;15.294;2022-08-19T01:00:46;24.70;51.30
65038;DHT22;51605;47.040;15.294;2022-08-19T01:03:15;24.70;52.30
65038;DHT22;51605;47.040;15.294;2022-08-19T01:05:43;24.70;51.30
65038;DHT22;51605;47.040;15.294;2022-08-19T01:08:10;24.70;51.30
65038;DHT22;51605;47.040;15.294;2022-08-19T01:10:41;24.70;51.30
65038;DHT22;51605;47.040;15.294;2022-08-19T01:13:07;24.70;51.30
65038;DHT22;51605;47.040;15.294;2022-08-19T01:15:40;24.70;51.30
65038;DHT22;51605;47.040;15.294;2022-08-19T01:18:12;24.70;51.30
65038;DHT22;51605;47.040;15.294;2022-08-19T01:20:39;24.70;51.30
65038;DHT22;51605;47.040;15.294;2022-08-19T01:23:05;24.70;51.40
65038;DHT22;51605;47.040;15.294;2022-08-19T01:25:38;24.70;51.30
65038;DHT22;51605;47.040;15.294;2022-08-19T01:28:05;24.70;51.30
65038;DHT22;51605;47.040;15.294;2022-08-19T01:30:33;24.70;51.30
65038;DHT22;51605;47.040;15.294;2022-08-19T01:32:59;24.70;51.40
65038;DHT22;51605;47.040;15.294;2022-08-19T01:35:27;24.70;51.30
65038;DHT22;51605;47.040;15.294;2022-08-19T01:37:57;24.70;51.30
65038;DHT22;51605;47.040;15.294;2022-08-19T01:40:25;24.70;51.30
65038;DHT22;51605;47.040;15.294;2022-08-19T01:42:52;24.70;51.30
65038;DHT22;51605;47.040;15.294;2022-08-19T01:45:20;24.70;51.30
65038;DHT22;51605;47.040;15.294;2022-08-19T01:47:46;24.70;51.40
65038;DHT22;51605;47.040;15.294;2022-08-19T01:50:12;24.70;51.30
65038;DHT22;51605;47.040;15.294;2022-08-19T01:52:41;24.60;51.20
65038;DHT22;51605;47.040;15.294;2022-08-19T01:55:11;24.70;51.40
65038;DHT22;51605;47.040;15.294;2022-08-19T01:57:37;24.70;51.30
65038;DHT22;51605;47.040;15.294;2022-08-19T02:00:08;24.70;51.30
65038;DHT22;51605;47.040;15.294;2022-08-19T02:02:34;24.70;51.30
65038;DHT22;51605;47.040;15.294;2022-08-19T02:04:59;24.70;51.30
65038;DHT22;51605;47.040;15.294;2022-08-19T02:07:25;24.60;51.30
65038;DHT22;51605;47.040;15.294;2022-08-19T02:09:51;24.70;51.30
65038;DHT22;51605;47.040;15.294;2022-08-19T02:12:16;24.70;51.30
65038;DHT22;51605;47.040;15.294;2022-08-19T02:14:42;24.70;51.30
65038;DHT22;51605;47.040;15.294;2022-08-19T02:17:08;24.70;51.30
65038;DHT22;51605;47.040;15.294;2022-08-19T02:19:34;24.70;51.30
65038;DHT22;51605;47.040;15.294;2022-08-19T02:22:00;24.70;51.30
65038;DHT22;51605;47.040;15.294;2022-08-19T02:24:27;24.70;51.30
65038;DHT22;51605;47.040;15.294;2022-08-19T02:26:53;24.70;51.30
65038;DHT22;51605;47.040;15.294;2022-08-19T02:29:19;24.70;51.30
65038;DHT22;51605;47.040;15.294;2022-08-19T02:31:45;24.70;51.30
65038;DHT22;51605;47.040;15.294;2022-08-19T02:34:11;24.70;51.30
65038;DHT22;51605;47.040;15.294;2022-08-19T02:36:37;24.70;51.30
65038;DHT22;51605;47.040;15.294;2022-08-19T02:39:02;24.70;51.30
65038;DHT22;51605;47.040;15.294;2022-08-19T02:41:30;24.70;51.30
65038;DHT22;51605;47.040;15.294;2022-08-19T02:43:58;24.70;51.30
65038;DHT22;51605;47.040;15.294;2022-08-19T02:46:27;24.70;51.30
65038;DHT22;51605;47.040;15.294;2022-08-19T02:48:57;24.70;51.30
65038;DHT22;51605;47.040;15.294;2022-08-19T02:51:30;24.70;51.30
65038;DHT22;51605;47.040;15.294;2022-08-19T02:53:56;24.70;51.30
65038;DHT22;51605;47.040;15.294;2022-08-19T02:56:22;24.70;51.30
65038;DHT22;51605;47.040;15.294;2022-08-19T02:58:49;24.70;51.30
65038;DHT22;51605;47.040;15.294;2022-08-19T03:01:30;24.70;51.30
65038;DHT22;51605;47.040;15.294;2022-08-19T03:03:57;24.70;51.30
65038;DHT22;51605;47.040;15.294;2022-08-19T03:06:22;24.70;51.30
65038;DHT22;51605;47.040;15.294;2022-08-19T03:08:49;24.70;51.40
65038;DHT22;51605;47.040;15.294;2022-08-19T03:11:22;24.70;51.30
65038;DHT22;51605;47.040;15.294;2022-08-19T03:13:49;24.70;51.30
65038;DHT22;51605;47.040;15.294;2022-08-19T03:16:20;24.70;52.30
65038;DHT22;51605;47.040;15.294;2022-08-19T03:18:46;24.70;51.30
65038;DHT22;51605;47.040;15.294;2022-08-19T03:21:19;24.70;51.30
65038;DHT22;51605;47.040;15.294;2022-08-19T03:23:46;24.70;51.30
65038;DHT22;51605;47.040;15.294;2022-08-19T03:28:47;24.70;51.30
65038;DHT22;51605;47.040;15.294;2022-08-19T03:31:17;24.70;52.30
65038;DHT22;51605;47.040;15.294;2022-08-19T03:33:44;24.60;51.30
65038;DHT22;51605;47.040;15.294;2022-08-19T03:36:18;24.70;51.30
65038;DHT22;51605;47.040;15.294;2022-08-19T03:38:48;24.70;51.40
65038;DHT22;51605;47.040;15.294;2022-08-19T03:41:18;24.70;51.30
65038;DHT22;51605;47.040;15.294;2022-08-19T03:43:44;24.70;51.40
65038;DHT22;51605;47.040;15.294;2022-08-19T03:46:15;24.70;51.30
65038;DHT22;51605;47.040;15.294;2022-08-19T03:48:43;24.70;51.30
65038;DHT22;51605;47.040;15.294;2022-08-19T03:51:16;24.70;51.30
65038;DHT22;51605;47.040;15.294;2022-08-19T03:53:42;24.70;51.40
65038;DHT22;51605;47.040;15.294;2022-08-19T03:56:09;24.60;51.30
65038;DHT22;51605;47.040;15.294;2022-08-19T03:58:35;24.60;51.40
65038;DHT22;51605;47.040;15.294;2022-08-19T04:01:07;24.60;51.40
65038;DHT22;51605;47.040;15.294;2022-08-19T04:03:33;24.70;51.30
65038;DHT22;51605;47.040;15.294;2022-08-19T04:06:11;24.70;52.10
65038;DHT22;51605;47.040;15.294;2022-08-19T04:08:37;24.60;52.10
65038;DHT22;51605;47.040;15.294;2022-08-19T04:11:07;24.70;51.90
65038;DHT22;51605;47.040;15.294;2022-08-19T04:13:33;24.70;52.20
65038;DHT22;51605;47.040;15.294;2022-08-19T04:15:59;24.70;52.20
65038;DHT22;51605;47.040;15.294;2022-08-19T04:18:25;24.60;52.20
65038;DHT22;51605;47.040;15.294;2022-08-19T04:20:51;24.70;52.20
65038;DHT22;51605;47.040;15.294;2022-08-19T04:23:17;24.70;52.00
65038;DHT22;51605;47.040;15.294;2022-08-19T04:25:44;24.70;52.10
65038;DHT22;51605;47.040;15.294;2022-08-19T04:28:12;24.70;52.00
65038;DHT22;51605;47.040;15.294;2022-08-19T04:30:41;24.70;51.90
65038;DHT22;51605;47.040;15.294;2022-08-19T04:33:07;24.70;51.90
65038;DHT22;51605;47.040;15.294;2022-08-19T04:35:38;24.80;52.00
65038;DHT22;51605;47.040;15.294;2022-08-19T04:38:05;24.70;51.90
65038;DHT22;51605;47.040;15.294;2022-08-19T04:40:31;24.70;51.90
65038;DHT22;51605;47.040;15.294;2022-08-19T04:43:16;24.70;51.90
65038;DHT22;51605;47.040;15.294;2022-08-19T04:45:45;24.70;52.00
65038;DHT22;51605;47.040;15.294;2022-08-19T04:48:11;24.70;52.10
65038;DHT22;51605;47.040;15.294;2022-08-19T04:50:41;24.80;52.20
65038;DHT22;51605;47.040;15.294;2022-08-19T04:53:07;24.80;52.00
65038;DHT22;51605;47.040;15.294;2022-08-19T04:55:33;24.80;52.00
65038;DHT22;51605;47.040;15.294;2022-08-19T04:58:01;24.80;52.00
65038;DHT22;51605;47.040;15.294;2022-08-19T05:00:27;24.80;52.90
65038;DHT22;51605;47.040;15.294;2022-08-19T05:02:53;24.80;51.80
65038;DHT22;51605;47.040;15.294;2022-08-19T05:05:19;24.90;51.60
65038;DHT22;51605;47.040;15.294;2022-08-19T05:07:45;24.90;51.60
65038;DHT22;51605;47.040;15.294;2022-08-19T05:10:11;24.80;51.60
65038;DHT22;51605;47.040;15.294;2022-08-19T05:12:37;24.80;51.70
65038;DHT22;51605;47.040;15.294;2022-08-19T05:15:04;24.80;51.70
65038;DHT22;51605;47.040;15.294;2022-08-19T05:17:31;24.80;51.70
65038;DHT22;51605;47.040;15.294;2022-08-19T05:19:57;24.90;51.80
65038;DHT22;51605;47.040;15.294;2022-08-19T05:22:44;24.80;51.80
65038;DHT22;51605;47.040;15.294;2022-08-19T05:25:16;24.80;51.90
65038;DHT22;51605;47.040;15.294;2022-08-19T05:27:44;24.80;51.90
65038;DHT22;51605;47.040;15.294;2022-08-19T05:30:11;24.90;51.90
65038;DHT22;51605;47.040;15.294;2022-08-19T05:32:37;24.80;51.90
65038;DHT22;51605;47.040;15.294;2022-08-19T05:35:04;24.80;51.90
65038;DHT22;51605;47.040;15.294;2022-08-19T05:37:30;24.80;51.90
65038;DHT22;51605;47.040;15.294;2022-08-19T05:39:55;24.80;52.00
65038;DHT22;51605;47.040;15.294;2022-08-19T05:42:22;24.90;51.90
65038;DHT22;51605;47.040;15.294;2022-08-19T05:44:48;24.90;51.90
65038;DHT22;51605;47.040;15.294;2022-08-19T05:47:15;24.90;51.90
65038;DHT22;51605;47.040;15.294;2022-08-19T05:49:42;24.90;51.80
65038;DHT22;51605;47.040;15.294;2022-08-19T05:52:11;24.90;51.80
65038;DHT22;51605;47.040;15.294;2022-08-19T05:54:39;24.90;51.90
65038;DHT22;51605;47.040;15.294;2022-08-19T05:57:07;24.90;51.80
65038;DHT22;51605;47.040;15.294;2022-08-19T05:59:33;24.90;51.70
65038;DHT22;51605;47.040;15.294;2022-08-19T06:02:01;24.90;51.50
65038;DHT22;51605;47.040;15.294;2022-08-19T06:04:27;24.90;51.40
65038;DHT22;51605;47.040;15.294;2022-08-19T06:06:53;24.90;51.40
65038;DHT22;51605;47.040;15.294;2022-08-19T06:09:21;24.90;51.40
65038;DHT22;51605;47.040;15.294;2022-08-19T06:11:50;24.80;52.30
65038;DHT22;51605;47.040;15.294;2022-08-19T06:14:21;24.80;51.40
65038;DHT22;51605;47.040;15.294;2022-08-19T06:16:48;24.80;51.50
65038;DHT22;51605;47.040;15.294;2022-08-19T06:19:17;24.80;51.50
65038;DHT22;51605;47.040;15.294;2022-08-19T06:21:47;24.80;51.60
65038;DHT22;51605;47.040;15.294;2022-08-19T06:24:17;24.80;51.50
65038;DHT22;51605;47.040;15.294;2022-08-19T06:26:45;24.80;51.50
65038;DHT22;51605;47.040;15.294;2022-08-19T06:29:12;24.80;51.50
65038;DHT22;51605;47.040;15.294;2022-08-19T06:31:40;24.80;51.50
65038;DHT22;51605;47.040;15.294;2022-08-19T06:34:06;24.80;51.70
65038;DHT22;51605;47.040;15.294;2022-08-19T06:36:41;24.80;51.40
65038;DHT22;51605;47.040;15.294;2022-08-19T06:39:10;24.80;51.50
65038;DHT22;51605;47.040;15.294;2022-08-19T06:41:38;24.90;51.70
65038;DHT22;51605;47.040;15.294;2022-08-19T06:44:05;24.90;51.80
65038;DHT22;51605;47.040;15.294;2022-08-19T06:46:31;24.80;51.90
65038;DHT22;51605;47.040;15.294;2022-08-19T06:48:58;24.80;52.00
65038;DHT22;51605;47.040;15.294;2022-08-19T06:51:24;24.80;52.00
65038;DHT22;51605;47.040;15.294;2022-08-19T06:53:51;24.90;52.00
65038;DHT22;51605;47.040;15.294;2022-08-19T06:56:20;24.90;52.00
65038;DHT22;51605;47.040;15.294;2022-08-19T06:58:46;24.90;52.10
65038;DHT22;51605;47.040;15.294;2022-08-19T07:01:12;24.90;52.00
65038;DHT22;51605;47.040;15.294;2022-08-19T07:06:19;24.90;52.00
65038;DHT22;51605;47.040;15.294;2022-08-19T07:08:46;24.90;51.90
65038;DHT22;51605;47.040;15.294;2022-08-19T07:11:13;24.90;52.00
65038;DHT22;51605;47.040;15.294;2022-08-19T07:13:39;24.90;51.90
65038;DHT22;51605;47.040;15.294;2022-08-19T07:18:31;25.00;51.80
65038;DHT22;51605;47.040;15.294;2022-08-19T07:21:18;25.00;51.80
65038;DHT22;51605;47.040;15.294;2022-08-19T07:23:45;24.90;51.80
65038;DHT22;51605;47.040;15.294;2022-08-19T07:26:26;24.90;51.90
65038;DHT22;51605;47.040;15.294;2022-08-19T07:28:52;24.90;52.00
65038;DHT22;51605;47.040;15.294;2022-08-19T07:31:21;24.90;52.00
65038;DHT22;51605;47.040;15.294;2022-08-19T07:33:49;24.90;51.90
65038;DHT22;51605;47.040;15.294;2022-08-19T07:36:22;24.90;52.00
65038;DHT22;51605;47.040;15.294;2022-08-19T07:38:50;24.90;52.10
65038;DHT22;51605;47.040;15.294;2022-08-19T07:41:19;24.90;52.00
65038;DHT22;51605;47.040;15.294;2022-08-19T07:43:47;24.90;52.10
65038;DHT22;51605;47.040;15.294;2022-08-19T07:46:13;24.90;52.00
65038;DHT22;51605;47.040;15.294;2022-08-19T07:48:43;24.90;52.10
65038;DHT22;51605;47.040;15.294;2022-08-19T07:51:16;24.90;52.10
65038;DHT22;51605;47.040;15.294;2022-08-19T07:53:43;24.90;51.90
65038;DHT22;51605;47.040;15.294;2022-08-19T07:56:11;24.90;51.90
65038;DHT22;51605;47.040;15.294;2022-08-19T07:58:39;24.90;51.80
65038;DHT22;51605;47.040;15.294;2022-08-19T08:01:06;24.80;51.80
65038;DHT22;51605;47.040;15.294;2022-08-19T08:03:32;24.80;51.80
65038;DHT22;51605;47.040;15.294;2022-08-19T08:06:17;24.80;52.00
65038;DHT22;51605;47.040;15.294;2022-08-19T08:09:03;24.80;51.90
65038;DHT22;51605;47.040;15.294;2022-08-19T08:14:52;24.90;52.00
65038;DHT22;51605;47.040;15.294;2022-08-19T08:17:12;24.90;52.10
65038;DHT22;51605;47.040;15.294;2022-08-19T08:19:39;24.90;52.10
65038;DHT22;51605;47.040;15.294;2022-08-19T08:22:07;24.90;52.10
65038;DHT22;51605;47.040;15.294;2022-08-19T08:24:32;24.90;51.90
65038;DHT22;51605;47.040;15.294;2022-08-19T08:27:00;24.90;52.00
65038;DHT22;51605;47.040;15.294;2022-08-19T08:29:28;24.90;52.00
65038;DHT22;51605;47.040;15.294;2022-08-19T08:31:54;24.90;52.10
65038;DHT22;51605;47.040;15.294;2022-08-19T08:34:21;24.90;52.10
65038;DHT22;51605;47.040;15.294;2022-08-19T08:36:47;24.90;52.10
65038;DHT22;51605;47.040;15.294;2022-08-19T08:39:16;24.90;52.20
65038;DHT22;51605;47.040;15.294;2022-08-19T08:44:29;24.90;52.20
65038;DHT22;51605;47.040;15.294;2022-08-19T08:47:02;24.90;52.20
65038;DHT22;51605;47.040;15.294;2022-08-19T08:52:21;24.90;52.30
65038;DHT22;51605;47.040;15.294;2022-08-19T08:54:50;24.90;52.40
65038;DHT22;51605;47.040;15.294;2022-08-19T08:57:27;25.00;52.40
65038;DHT22;51605;47.040;15.294;2022-08-19T08:59:54;24.90;52.40
65038;DHT22;51605;47.040;15.294;2022-08-19T09:02:21;25.00;52.40
65038;DHT22;51605;47.040;15.294;2022-08-19T09:04:47;24.90;52.30
65038;DHT22;51605;47.040;15.294;2022-08-19T09:16:12;24.90;52.50
65038;DHT22;51605;47.040;15.294;2022-08-19T09:18:44;24.90;52.50
65038;DHT22;51605;47.040;15.294;2022-08-19T09:21:13;25.00;52.50
65038;DHT22;51605;47.040;15.294;2022-08-19T09:23:39;25.00;53.40
65038;DHT22;51605;47.040;15.294;2022-08-19T09:26:13;25.00;52.50
65038;DHT22;51605;47.040;15.294;2022-08-19T09:28:41;24.90;52.60
65038;DHT22;51605;47.040;15.294;2022-08-19T09:31:11;24.90;52.50
65038;DHT22;51605;47.040;15.294;2022-08-19T09:33:37;24.90;52.40
65038;DHT22;51605;47.040;15.294;2022-08-19T09:36:08;25.00;52.40
65038;DHT22;51605;47.040;15.294;2022-08-19T09:38:35;25.00;52.40
65038;DHT22;51605;47.040;15.294;2022-08-19T09:41:05;25.00;52.50
65038;DHT22;51605;47.040;15.294;2022-08-19T09:43:32;24.90;52.40
65038;DHT22;51605;47.040;15.294;2022-08-19T09:46:02;25.00;52.30
65038;DHT22;51605;47.040;15.294;2022-08-19T09:48:28;25.00;52.40
65038;DHT22;51605;47.040;15.294;2022-08-19T09:50:54;25.00;52.50
65038;DHT22;51605;47.040;15.294;2022-08-19T09:53:20;24.90;52.50
65038;DHT22;51605;47.040;15.294;2022-08-19T09:55:47;24.90;52.50
65038;DHT22;51605;47.040;15.294;2022-08-19T09:58:13;24.90;52.60
65038;DHT22;51605;47.040;15.294;2022-08-19T10:00:39;24.90;52.60
65038;DHT22;51605;47.040;15.294;2022-08-19T10:03:04;24.90;52.50
65038;DHT22;51605;47.040;15.294;2022-08-19T10:05:30;25.00;52.50
65038;DHT22;51605;47.040;15.294;2022-08-19T10:08:19;24.90;52.50
65038;DHT22;51605;47.040;15.294;2022-08-19T10:10:45;25.00;52.50
65038;DHT22;51605;47.040;15.294;2022-08-19T10:13:12;24.90;52.50
65038;DHT22;51605;47.040;15.294;2022-08-19T10:15:37;25.00;52.50
65038;DHT22;51605;47.040;15.294;2022-08-19T10:18:07;24.90;52.40
65038;DHT22;51605;47.040;15.294;2022-08-19T10:20:32;24.90;52.50
65038;DHT22;51605;47.040;15.294;2022-08-19T10:23:01;24.90;52.40
65038;DHT22;51605;47.040;15.294;2022-08-19T10:25:27;25.00;52.30
65038;DHT22;51605;47.040;15.294;2022-08-19T10:27:53;25.00;52.40
65038;DHT22;51605;47.040;15.294;2022-08-19T10:30:20;24.90;52.30
65038;DHT22;51605;47.040;15.294;2022-08-19T10:32:46;24.90;52.30
65038;DHT22;51605;47.040;15.294;2022-08-19T10:35:13;24.90;52.50
65038;DHT22;51605;47.040;15.294;2022-08-19T10:37:39;24.90;52.50
65038;DHT22;51605;47.040;15.294;2022-08-19T10:40:06;25.00;52.50
65038;DHT22;51605;47.040;15.294;2022-08-19T10:42:34;25.00;52.50
65038;DHT22;51605;47.040;15.294;2022-08-19T10:45:00;25.00;52.50
65038;DHT22;51605;47.040;15.294;2022-08-19T10:47:25;25.00;52.50
65038;DHT22;51605;47.040;15.294;2022-08-19T10:49:51;25.00;52.50
65038;DHT22;51605;47.040;15.294;2022-08-19T10:52:36;25.00;52.60
65038;DHT22;51605;47.040;15.294;2022-08-19T10:55:06;25.00;52.60
65038;DHT22;51605;47.040;15.294;2022-08-19T10:57:51;25.00;52.50
65038;DHT22;51605;47.040;15.294;2022-08-19T11:00:19;25.00;52.40
65038;DHT22;51605;47.040;15.294;2022-08-19T11:02:45;25.00;52.40
65038;DHT22;51605;47.040;15.294;2022-08-19T11:05:12;25.00;52.40
65038;DHT22;51605;47.040;15.294;2022-08-19T11:07:39;24.90;52.40
65038;DHT22;51605;47.040;15.294;2022-08-19T11:10:06;25.00;52.40
65038;DHT22;51605;47.040;15.294;2022-08-19T11:12:32;25.00;52.40
65038;DHT22;51605;47.040;15.294;2022-08-19T11:14:58;24.90;52.30
65038;DHT22;51605;47.040;15.294;2022-08-19T11:17:24;24.90;52.20
65038;DHT22;51605;47.040;15.294;2022-08-19T11:19:50;24.90;52.20
65038;DHT22;51605;47.040;15.294;2022-08-19T11:22:16;24.90;52.20
65038;DHT22;51605;47.040;15.294;2022-08-19T11:24:42;24.90;52.10
65038;DHT22;51605;47.040;15.294;2022-08-19T11:27:09;24.90;52.10
65038;DHT22;51605;47.040;15.294;2022-08-19T11:29:37;25.00;52.10
65038;DHT22;51605;47.040;15.294;2022-08-19T11:32:09;24.90;52.10
65038;DHT22;51605;47.040;15.294;2022-08-19T11:34:36;24.90;52.10
65038;DHT22;51605;47.040;15.294;2022-08-19T11:37:02;24.90;52.10
65038;DHT22;51605;47.040;15.294;2022-08-19T11:39:29;24.90;52.10
65038;DHT22;51605;47.040;15.294;2022-08-19T11:41:57;24.90;52.20
65038;DHT22;51605;47.040;15.294;2022-08-19T11:44:23;25.00;52.10
65038;DHT22;51605;47.040;15.294;2022-08-19T11:46:48;25.00;52.30
65038;DHT22;51605;47.040;15.294;2022-08-19T11:49:16;25.00;52.40
65038;DHT22;51605;47.040;15.294;2022-08-19T11:51:44;25.00;52.30
65038;DHT22;51605;47.040;15.294;2022-08-19T11:54:12;25.00;52.40
65038;DHT22;51605;47.040;15.294;2022-08-19T11:56:39;25.00;52.40
65038;DHT22;51605;47.040;15.294;2022-08-19T11:59:05;25.00;52.60
65038;DHT22;51605;47.040;15.294;2022-08-19T12:01:31;25.00;52.50
65038;DHT22;51605;47.040;15.294;2022-08-19T12:03:57;25.00;52.50
65038;DHT22;51605;47.040;15.294;2022-08-19T12:06:28;25.00;52.50
65038;DHT22;51605;47.040;15.294;2022-08-19T12:08:56;25.00;52.50
65038;DHT22;51605;47.040;15.294;2022-08-19T12:11:23;25.00;52.50
65038;DHT22;51605;47.040;15.294;2022-08-19T12:13:49;25.00;52.50
65038;DHT22;51605;47.040;15.294;2022-08-19T12:16:24;25.00;52.50
65038;DHT22;51605;47.040;15.294;2022-08-19T12:18:51;25.00;52.60
65038;DHT22;51605;47.040;15.294;2022-08-19T12:21:20;25.00;52.50
65038;DHT22;51605;47.040;15.294;2022-08-19T12:23:49;25.00;52.40
65038;DHT22;51605;47.040;15.294;2022-08-19T12:26:15;25.00;52.30
65038;DHT22;51605;47.040;15.294;2022-08-19T12:28:42;25.00;52.30
65038;DHT22;51605;47.040;15.294;2022-08-19T12:31:09;25.00;52.30
65038;DHT22;51605;47.040;15.294;2022-08-19T12:33:37;25.00;52.20
65038;DHT22;51605;47.040;15.294;2022-08-19T12:36:05;25.00;52.30
65038;DHT22;51605;47.040;15.294;2022-08-19T12:38:31;24.90;52.20
65038;DHT22;51605;47.040;15.294;2022-08-19T12:40:58;25.00;52.20
65038;DHT22;51605;47.040;15.294;2022-08-19T12:43:24;24.90;52.10
65038;DHT22;51605;47.040;15.294;2022-08-19T12:45:49;24.90;52.10
65038;DHT22;51605;47.040;15.294;2022-08-19T12:48:16;24.90;52.20
65038;DHT22;51605;47.040;15.294;2022-08-19T12:50:44;24.90;52.20
65038;DHT22;51605;47.040;15.294;2022-08-19T12:53:13;24.90;52.20
65038;DHT22;51605;47.040;15.294;2022-08-19T12:55:39;24.90;52.20
65038;DHT22;51605;47.040;15.294;2022-08-19T12:58:04;24.90;52.20
65038;DHT22;51605;47.040;15.294;2022-08-19T13:00:30;24.90;52.20
65038;DHT22;51605;47.040;15.294;2022-08-19T13:02:59;24.90;52.20
65038;DHT22;51605;47.040;15.294;2022-08-19T13:05:26;24.90;52.20
65038;DHT22;51605;47.040;15.294;2022-08-19T13:07:53;24.90;52.10
65038;DHT22;51605;47.040;15.294;2022-08-19T13:10:22;24.90;51.90
65038;DHT22;51605;47.040;15.294;2022-08-19T13:12:50;24.90;52.00
65038;DHT22;51605;47.040;15.294;2022-08-19T13:15:18;24.90;52.50
65038;DHT22;51605;47.040;15.294;2022-08-19T13:17:46;24.90;52.10
65038;DHT22;51605;47.040;15.294;2022-08-19T13:20:16;24.80;52.10
65038;DHT22;51605;47.040;15.294;2022-08-19T13:22:42;24.80;52.00
65038;DHT22;51605;47.040;15.294;2022-08-19T13:25:10;24.80;52.10
65038;DHT22;51605;47.040;15.294;2022-08-19T13:27:36;24.90;52.70
65038;DHT22;51605;47.040;15.294;2022-08-19T13:30:03;24.80;52.00
65038;DHT22;51605;47.040;15.294;2022-08-19T13:32:48;24.90;52.10
65038;DHT22;51605;47.040;15.294;2022-08-19T13:35:32;24.80;52.00
65038;DHT22;51605;47.040;15.294;2022-08-19T13:37:58;24.80;52.10
65038;DHT22;51605;47.040;15.294;2022-08-19T13:40:26;24.80;52.10
65038;DHT22;51605;47.040;15.294;2022-08-19T13:42:54;24.80;52.00
65038;DHT22;51605;47.040;15.294;2022-08-19T13:45:22;24.80;52.00
65038;DHT22;51605;47.040;15.294;2022-08-19T13:47:52;24.80;52.00
65038;DHT22;51605;47.040;15.294;2022-08-19T13:50:22;24.80;52.00
65038;DHT22;51605;47.040;15.294;2022-08-19T13:52:52;24.80;52.10
65038;DHT22;51605;47.040;15.294;2022-08-19T13:55:17;24.80;52.10
65038;DHT22;51605;47.040;15.294;2022-08-19T13:57:46;24.80;52.00
65038;DHT22;51605;47.040;15.294;2022-08-19T14:00:17;24.90;51.90
65038;DHT22;51605;47.040;15.294;2022-08-19T14:02:45;24.90;51.90
65038;DHT22;51605;47.040;15.294;2022-08-19T14:05:14;24.90;51.90
65038;DHT22;51605;47.040;15.294;2022-08-19T14:07:40;24.80;52.00
65038;DHT22;51605;47.040;15.294;2022-08-19T14:10:08;24.80;52.00
65038;DHT22;51605;47.040;15.294;2022-08-19T14:12:34;24.80;52.00
65038;DHT22;51605;47.040;15.294;2022-08-19T14:15:01;24.80;52.00
65038;DHT22;51605;47.040;15.294;2022-08-19T14:17:28;24.80;52.00
65038;DHT22;51605;47.040;15.294;2022-08-19T14:20:04;24.80;52.10
65038;DHT22;51605;47.040;15.294;2022-08-19T14:22:36;24.80;52.00
65038;DHT22;51605;47.040;15.294;2022-08-19T14:25:06;24.80;53.00
65038;DHT22;51605;47.040;15.294;2022-08-19T14:27:37;24.80;52.00
65038;DHT22;51605;47.040;15.294;2022-08-19T14:30:05;24.80;52.10
65038;DHT22;51605;47.040;15.294;2022-08-19T14:32:32;24.80;52.00
65038;DHT22;51605;47.040;15.294;2022-08-19T14:34:58;24.80;52.00
65038;DHT22;51605;47.040;15.294;2022-08-19T14:37:23;24.80;52.00
65038;DHT22;51605;47.040;15.294;2022-08-19T14:39:49;24.80;52.10
65038;DHT22;51605;47.040;15.294;2022-08-19T14:42:20;24.80;52.10
65038;DHT22;51605;47.040;15.294;2022-08-19T14:44:46;24.80;52.10
65038;DHT22;51605;47.040;15.294;2022-08-19T14:47:11;24.80;52.10
65038;DHT22;51605;47.040;15.294;2022-08-19T14:49:37;24.80;53.00
65038;DHT22;51605;47.040;15.294;2022-08-19T14:52:05;24.80;52.10
65038;DHT22;51605;47.040;15.294;2022-08-19T14:54:30;24.80;52.00
65038;DHT22;51605;47.040;15.294;2022-08-19T14:56:56;24.80;52.00
65038;DHT22;51605;47.040;15.294;2022-08-19T14:59:22;24.80;51.90
65038;DHT22;51605;47.040;15.294;2022-08-19T15:01:48;24.80;52.00
65038;DHT22;51605;47.040;15.294;2022-08-19T15:04:13;24.80;52.00
65038;DHT22;51605;47.040;15.294;2022-08-19T15:06:39;24.80;52.00
65038;DHT22;51605;47.040;15.294;2022-08-19T15:09:05;24.80;51.90
65038;DHT22;51605;47.040;15.294;2022-08-19T15:11:32;24.80;51.90
65038;DHT22;51605;47.040;15.294;2022-08-19T15:13:59;24.80;51.90
65038;DHT22;51605;47.040;15.294;2022-08-19T15:16:25;24.80;51.90
65038;DHT22;51605;47.040;15.294;2022-08-19T15:18:54;24.80;51.90
65038;DHT22;51605;47.040;15.294;2022-08-19T15:21:21;24.80;52.00
65038;DHT22;51605;47.040;15.294;2022-08-19T15:23:49;24.80;52.00
65038;DHT22;51605;47.040;15.294;2022-08-19T15:26:16;24.80;52.00
65038;DHT22;51605;47.040;15.294;2022-08-19T15:28:43;24.80;52.00
65038;DHT22;51605;47.040;15.294;2022-08-19T15:31:09;24.80;52.00
65038;DHT22;51605;47.040;15.294;2022-08-19T15:33:36;24.80;52.00
65038;DHT22;51605;47.040;15.294;2022-08-19T15:36:03;24.80;52.10
65038;DHT22;51605;47.040;15.294;2022-08-19T15:38:30;24.80;52.10
65038;DHT22;51605;47.040;15.294;2022-08-19T15:41:04;24.80;51.90
65038;DHT22;51605;47.040;15.294;2022-08-19T15:43:54;24.80;51.70
65038;DHT22;51605;47.040;15.294;2022-08-19T15:46:24;24.80;51.90